Skip Navigation Links Skip Navigation Links

Current Weather

Saglek Bay, Nfld.

For information only: do not use for flight planning or navigation.
Latest weather
Observation time Sunday, May 31, 2020 10:36 AM NDT
Local time Sunday, May 31, 2020 10:46 AM NDT
Flight conditions Low Instrument Meteorological Conditions
Winds
Wind direction variable
Wind speed 2 mph
Visibility 0 mi.
Present weather SM
Sky condition
Ceiling 6,000 ft. overcast
Cloud layer few clouds 200 ft.
Cloud layer overcast 6,000 ft.
Temperature 39°F
Dewpoint 30°F
Altimeter 29.76 in.Hg
Derived measurements
Relative humidity 70%
Wind chill 39°F
Density altitude -576 ft.
Remarks
Special weather observation.
Fully automated report.
METAR SPECI CWZZ 311306Z AUTO VRB02KT ////SM FEW002 OVC060 04/M01 A2976

Settings

Location code

InnerDrive.Weather 4.0.6770.0 Release CLR 4.0.30319.42000
Copyright ©2018 Inner Drive Technology. All rights reserved. Portions Copyright ©1986-2018 David Braverman.

Find weather

Site navigation


Skip Navigation Links

Place info

Page info

PayPal - The safer, easier way to pay online!

Return home.

Copyright ©2020 Inner Drive Technology. Purveyors of fine, hand-crafted computer software. Page printed 2020-05-31T13:16:53 UTC.